EDFM/MHG METAR and TAF weather

Enter ICAO airport designator
Station Type Date Time Source
EDFM METAR 2019/11/13 20:20 UTC NOAA

EDFM 132020Z 18004KT 160V220 9999 SCT018 BKN065 06/03 Q1005


Station Type Date Time Source
EDFM Decoded METAR 2019/11/13 20:20 UTC NOAA

Baden Wurttemberg, Neuostheim, Germany (EDFM) 49-28-21N 008-30-56E
Nov 13, 2019 - 03:20 PM EST / 2019.11.13 2020 UTC
Wind: from the S (180 degrees) at 5 MPH (4 KT) (direction variable):0
Visibility: greater than 7 mile(s):0
Sky conditions: mostly cloudy
Temperature: 42 F (6 C)
Dew Point: 37 F (3 C)
Relative Humidity: 81%
Pressure (altimeter): 29.68 in. Hg (1005 hPa)
ob: EDFM 132020Z 18004KT 160V220 9999 SCT018 BKN065 06/03 Q1005
cycle: 20

Station Type Date Time Source
EDFM TAF 2012/03/06 06:30 UTC NOAA

TAF EDFM 060519Z 0606/0621 15004KT 9999 FEW040

Example: see airport list